createdAt,value
2022-12-03T00:00:44.945Z,1.08
2022-12-03T00:04:46.472Z,1.21
2022-12-03T00:08:48.067Z,1.17
2022-12-03T00:12:49.758Z,1.12
2022-12-03T00:16:51.656Z,1.11
2022-12-03T00:20:53.221Z,1.02
2022-12-03T00:24:55.004Z,0.91
2022-12-03T00:28:57.730Z,0.83
2022-12-03T00:32:59.248Z,0.86
2022-12-03T00:37:00.828Z,0.92
2022-12-03T00:41:02.443Z,1.04
2022-12-03T00:45:04.524Z,1.09
2022-12-03T00:49:06.280Z,1.15
2022-12-03T00:53:10.879Z,1.03
2022-12-03T00:57:12.671Z,1.08
2022-12-03T01:01:15.532Z,1.11
2022-12-03T01:05:18.210Z,0.96
2022-12-03T01:09:19.790Z,0.93
2022-12-03T01:13:21.476Z,0.89
2022-12-03T01:17:23.053Z,0.89
2022-12-03T01:21:24.669Z,0.98
2022-12-03T01:25:26.257Z,1.02
2022-12-03T01:29:27.978Z,1.05
2022-12-03T01:33:29.543Z,1.11
2022-12-03T01:37:31.392Z,1.21
2022-12-03T01:41:34.819Z,1.33
2022-12-03T01:45:36.422Z,1.36
2022-12-03T01:49:44.213Z,1.35
2022-12-03T01:53:46.616Z,1.35
2022-12-03T01:57:51.616Z,1.25
2022-12-03T02:01:53.585Z,1.24
2022-12-03T02:05:56.793Z,1.09
2022-12-03T02:10:02.616Z,0.93
2022-12-03T02:14:08.377Z,0.90
2022-12-03T02:18:10.280Z,0.92
2022-12-03T02:22:51.434Z,1.01
2022-12-03T02:26:53.073Z,1.01
2022-12-03T02:30:54.622Z,1.01
2022-12-03T02:34:56.681Z,1.06
2022-12-03T02:38:58.701Z,1.06
2022-12-03T02:43:03.764Z,0.93
2022-12-03T02:47:05.409Z,0.91
2022-12-03T02:51:10.607Z,0.96
2022-12-03T02:55:13.924Z,0.78
2022-12-03T02:59:15.708Z,0.67
2022-12-03T03:03:18.784Z,0.63
2022-12-03T03:07:20.336Z,0.68
2022-12-03T03:11:21.908Z,0.62
2022-12-03T03:15:24.705Z,0.74
2022-12-03T03:19:26.914Z,0.74
2022-12-03T03:23:28.576Z,0.78
2022-12-03T03:27:30.533Z,0.64
2022-12-03T03:31:32.123Z,0.63
2022-12-03T03:35:33.974Z,0.64
2022-12-03T03:39:35.799Z,0.70
2022-12-03T03:43:39.076Z,0.69
2022-12-03T03:47:41.600Z,0.71
2022-12-03T03:51:43.508Z,0.67
2022-12-03T03:55:45.715Z,0.74
2022-12-03T03:59:47.207Z,0.79
2022-12-03T04:03:48.821Z,0.78
2022-12-03T04:07:50.687Z,0.84
2022-12-03T04:12:10.693Z,0.87
2022-12-03T04:16:12.811Z,0.95
2022-12-03T04:20:14.623Z,0.94
2022-12-03T04:24:16.286Z,0.81
2022-12-03T04:28:36.623Z,0.88
2022-12-03T04:32:56.465Z,0.92
2022-12-03T04:36:58.142Z,0.84
2022-12-03T04:41:04.243Z,0.90
2022-12-03T04:45:06.702Z,0.88
2022-12-03T04:49:08.323Z,0.82
2022-12-03T04:53:09.826Z,0.83
2022-12-03T04:57:12.208Z,0.87
2022-12-03T05:01:13.900Z,0.76
2022-12-03T05:05:24.832Z,0.90
2022-12-03T05:09:26.441Z,0.95
2022-12-03T05:13:28.287Z,0.96
2022-12-03T05:17:29.808Z,1.01
2022-12-03T05:21:31.595Z,0.96
2022-12-03T05:25:33.317Z,0.82
2022-12-03T05:29:34.823Z,0.78
2022-12-03T05:33:40.832Z,0.81
2022-12-03T05:37:45.474Z,0.84
2022-12-03T05:42:05.736Z,0.86
2022-12-03T05:46:07.261Z,0.71
2022-12-03T05:50:09.156Z,0.68
2022-12-03T05:54:10.620Z,0.72
2022-12-03T05:58:12.295Z,0.73
2022-12-03T06:02:14.023Z,0.67
2022-12-03T06:06:15.607Z,0.58
2022-12-03T06:10:20.454Z,0.55
2022-12-03T06:14:21.939Z,0.68
2022-12-03T06:18:23.561Z,0.67
2022-12-03T06:22:25.166Z,0.62
2022-12-03T06:26:26.669Z,0.75
2022-12-03T06:30:28.276Z,0.75
2022-12-03T06:34:30.071Z,0.68
2022-12-03T06:38:31.566Z,0.67
2022-12-03T06:42:33.119Z,0.64
2022-12-03T06:46:34.775Z,0.58
2022-12-03T06:50:36.397Z,0.67
2022-12-03T06:54:38.034Z,0.76
2022-12-03T06:58:39.743Z,0.71
2022-12-03T07:02:41.456Z,0.78
2022-12-03T07:06:43.683Z,0.88
2022-12-03T07:10:45.359Z,0.82
2022-12-03T07:14:49.222Z,0.87
2022-12-03T07:18:50.809Z,0.84
2022-12-03T07:22:52.352Z,0.89
2022-12-03T07:26:53.982Z,1.01
2022-12-03T07:30:55.645Z,0.95
2022-12-03T07:34:57.481Z,0.94
2022-12-03T07:38:59.105Z,0.96
2022-12-03T07:43:00.883Z,0.99
2022-12-03T07:47:02.802Z,1.15
2022-12-03T07:51:04.608Z,1.09
2022-12-03T07:55:06.702Z,1.08
2022-12-03T07:59:08.440Z,1.21
2022-12-03T08:03:10.131Z,1.32
2022-12-03T08:07:11.862Z,1.37
2022-12-03T08:11:16.865Z,1.51
2022-12-03T08:15:21.305Z,1.73
2022-12-03T08:19:22.893Z,1.89
2022-12-03T08:23:25.422Z,1.89
2022-12-03T08:27:26.998Z,1.96
2022-12-03T08:31:33.694Z,2.12
2022-12-03T08:35:49.785Z,2.16
2022-12-03T08:39:54.642Z,2.21
2022-12-03T08:43:57.537Z,2.06
2022-12-03T08:48:14.757Z,2.14
2022-12-03T08:52:22.695Z,2.33
2022-12-03T08:56:27.592Z,2.22
2022-12-03T09:00:29.206Z,2.23
2022-12-03T09:04:46.102Z,2.30
2022-12-03T09:08:49.960Z,2.31
2022-12-03T09:12:53.875Z,2.38
2022-12-03T09:16:56.549Z,2.38
2022-12-03T09:20:58.394Z,2.50
2022-12-03T09:25:00.148Z,2.50
2022-12-03T09:29:01.987Z,2.48
2022-12-03T09:33:03.658Z,2.49
2022-12-03T09:37:05.198Z,2.50
2022-12-03T09:41:08.785Z,2.59
2022-12-03T09:45:14.259Z,2.69
2022-12-03T09:49:19.031Z,2.64
2022-12-03T09:53:28.508Z,2.58
2022-12-03T09:57:31.097Z,2.77
2022-12-03T10:01:32.760Z,2.68
2022-12-03T10:05:36.760Z,2.80
2022-12-03T10:09:38.499Z,2.97
2022-12-03T10:13:40.735Z,3.03
2022-12-03T10:17:43.205Z,3.00
2022-12-03T10:21:44.718Z,2.94
2022-12-03T10:25:59.456Z,3.00
2022-12-03T10:30:14.006Z,2.83
2022-12-03T10:34:24.397Z,2.66
2022-12-03T10:38:26.580Z,2.61
2022-12-03T10:42:40.309Z,2.57
2022-12-03T10:46:42.136Z,2.45
2022-12-03T10:51:10.315Z,2.45
2022-12-03T10:55:15.940Z,2.66
2022-12-03T10:59:25.596Z,2.98
2022-12-03T11:03:37.512Z,3.21
2022-12-03T11:07:39.733Z,3.37
2022-12-03T11:11:41.382Z,3.45
2022-12-03T11:15:44.969Z,3.45
2022-12-03T11:19:48.652Z,3.45
2022-12-03T11:23:50.125Z,3.58
2022-12-03T11:28:10.492Z,3.74
2022-12-03T11:32:38.402Z,3.75
2022-12-03T11:37:12.766Z,4.04
2022-12-03T11:41:22.566Z,4.12
2022-12-03T11:45:36.731Z,4.07
2022-12-03T11:49:49.354Z,4.03
2022-12-03T11:53:53.942Z,4.14
2022-12-03T11:58:01.753Z,4.10
2022-12-03T12:02:19.933Z,4.20
2022-12-03T12:06:21.778Z,4.21
2022-12-03T12:10:43.519Z,4.26
2022-12-03T12:14:47.037Z,4.20
2022-12-03T12:18:55.159Z,4.01
2022-12-03T12:23:21.977Z,4.00
2022-12-03T12:27:37.922Z,3.76
2022-12-03T12:31:39.576Z,3.64
2022-12-03T12:35:41.493Z,3.69
2022-12-03T12:39:43.097Z,3.58
2022-12-03T12:43:44.856Z,3.49
2022-12-03T12:47:48.903Z,3.36
2022-12-03T12:51:50.826Z,3.21
2022-12-03T12:56:01.349Z,3.32
2022-12-03T13:00:05.002Z,3.34
2022-12-03T13:04:21.605Z,3.32
2022-12-03T13:08:25.298Z,3.36
2022-12-03T13:12:27.096Z,3.33
2022-12-03T13:16:32.925Z,3.38
2022-12-03T13:20:34.950Z,3.54
2022-12-03T13:24:38.554Z,3.57
2022-12-03T13:28:41.437Z,3.64
2022-12-03T13:32:43.625Z,3.64
2022-12-03T13:36:52.038Z,3.73
2022-12-03T13:41:02.293Z,3.77
2022-12-03T13:45:19.575Z,3.77
2022-12-03T13:49:23.181Z,3.70
2022-12-03T13:53:28.661Z,3.69
2022-12-03T13:57:30.332Z,3.76
2022-12-03T14:01:32.198Z,3.77
2022-12-03T14:05:33.814Z,3.79
2022-12-03T14:09:35.398Z,3.84
2022-12-03T14:13:37.051Z,3.81
2022-12-03T14:17:38.878Z,3.71
2022-12-03T14:21:40.583Z,3.63
2022-12-03T14:25:43.881Z,3.56
2022-12-03T14:29:45.697Z,3.48
2022-12-03T14:33:47.747Z,3.42
2022-12-03T14:37:49.367Z,3.46
2022-12-03T14:42:09.545Z,3.38
2022-12-03T14:46:11.343Z,3.29
2022-12-03T14:50:14.279Z,3.24
2022-12-03T14:54:16.266Z,3.34
2022-12-03T14:58:17.835Z,3.28
2022-12-03T15:02:19.631Z,3.22
2022-12-03T15:06:21.177Z,3.15
2022-12-03T15:10:22.883Z,3.10
2022-12-03T15:14:27.252Z,3.03
2022-12-03T15:18:30.856Z,3.02
2022-12-03T15:22:36.498Z,3.00
2022-12-03T15:26:47.283Z,2.91
2022-12-03T15:30:51.998Z,2.92
2022-12-03T15:34:53.549Z,2.97
2022-12-03T15:38:57.247Z,3.05
2022-12-03T15:42:59.032Z,2.97
2022-12-03T15:47:00.587Z,2.94
2022-12-03T15:51:02.056Z,2.90
2022-12-03T15:55:04.167Z,2.88
2022-12-03T15:59:08.895Z,2.87
2022-12-03T16:03:11.290Z,2.83
2022-12-03T16:07:14.020Z,2.82
2022-12-03T16:11:15.964Z,2.77
2022-12-03T16:15:38.683Z,2.85
2022-12-03T16:19:40.301Z,2.91
2022-12-03T16:23:41.756Z,2.96
2022-12-03T16:27:43.556Z,2.94
2022-12-03T16:31:45.898Z,3.01
2022-12-03T16:35:47.511Z,2.99
2022-12-03T16:39:53.330Z,2.85
2022-12-03T16:43:55.393Z,2.86
2022-12-03T16:47:57.363Z,2.88
2022-12-03T16:51:59.306Z,2.91
2022-12-03T16:56:05.621Z,2.86
2022-12-03T17:00:08.370Z,2.79
2022-12-03T17:04:09.896Z,2.82
2022-12-03T17:08:11.861Z,2.84
2022-12-03T17:12:13.710Z,2.91
2022-12-03T17:16:15.436Z,2.98
2022-12-03T17:20:17.932Z,3.03
2022-12-03T17:24:22.112Z,3.03
2022-12-03T17:28:23.759Z,2.83
2022-12-03T17:32:25.566Z,2.78
2022-12-03T17:36:28.489Z,2.84
2022-12-03T17:40:30.059Z,2.82
2022-12-03T17:44:31.657Z,2.79
2022-12-03T17:48:33.444Z,2.68
2022-12-03T17:52:34.995Z,2.70
2022-12-03T17:56:36.840Z,2.75
2022-12-03T18:00:41.621Z,2.82
2022-12-03T18:04:43.120Z,2.84
2022-12-03T18:08:44.830Z,2.86
2022-12-03T18:12:46.678Z,2.85
2022-12-03T18:16:48.433Z,2.92
2022-12-03T18:20:50.207Z,3.01
2022-12-03T18:24:52.218Z,2.97
2022-12-03T18:28:53.876Z,2.95
2022-12-03T18:32:55.596Z,3.01
2022-12-03T18:36:57.345Z,3.05
2022-12-03T18:40:59.729Z,3.08
2022-12-03T18:45:01.267Z,3.12
2022-12-03T18:49:03.021Z,3.03
2022-12-03T18:53:04.772Z,3.05
2022-12-03T18:57:07.635Z,3.09
2022-12-03T19:01:17.205Z,3.14
2022-12-03T19:05:18.823Z,3.09
2022-12-03T19:09:20.570Z,2.98
2022-12-03T19:13:22.399Z,3.05
2022-12-03T19:17:24.517Z,3.06
2022-12-03T19:21:30.706Z,3.05
2022-12-03T19:25:35.158Z,3.04
2022-12-03T19:29:36.873Z,3.06
2022-12-03T19:33:38.932Z,2.98
2022-12-03T19:37:40.566Z,3.11
2022-12-03T19:41:43.952Z,3.15
2022-12-03T19:45:45.517Z,3.14
2022-12-03T19:49:47.240Z,3.15
2022-12-03T19:53:48.939Z,3.09
2022-12-03T19:57:50.485Z,3.11
2022-12-03T20:01:52.173Z,3.09
2022-12-03T20:05:56.248Z,3.17
2022-12-03T20:09:58.384Z,3.18
2022-12-03T20:14:10.373Z,3.27
2022-12-03T20:18:11.910Z,3.32
2022-12-03T20:22:13.523Z,3.32
2022-12-03T20:26:20.060Z,3.36
2022-12-03T20:30:21.922Z,3.40
2022-12-03T20:34:23.501Z,3.31
2022-12-03T20:38:26.389Z,3.21
2022-12-03T20:42:28.095Z,3.17
2022-12-03T20:46:31.445Z,3.09
2022-12-03T20:50:33.372Z,3.02
2022-12-03T20:54:35.061Z,3.12
2022-12-03T20:58:36.930Z,3.20
2022-12-03T21:02:38.628Z,3.17
2022-12-03T21:06:42.196Z,2.96
2022-12-03T21:10:46.943Z,2.83
2022-12-03T21:14:48.728Z,2.78
2022-12-03T21:18:50.562Z,2.71
2022-12-03T21:22:52.091Z,2.65
2022-12-03T21:26:53.729Z,2.69
2022-12-03T21:31:00.320Z,2.78
2022-12-03T21:35:02.011Z,2.81
2022-12-03T21:39:05.032Z,2.74
2022-12-03T21:43:06.689Z,2.76
2022-12-03T21:47:13.962Z,2.60
2022-12-03T21:51:17.651Z,2.63
2022-12-03T21:55:21.910Z,2.62
2022-12-03T21:59:23.598Z,2.70
2022-12-03T22:03:25.338Z,2.70
2022-12-03T22:07:27.046Z,2.65
2022-12-03T22:11:28.741Z,2.67
2022-12-03T22:15:31.412Z,2.75
2022-12-03T22:19:32.948Z,2.81
2022-12-03T22:23:34.762Z,2.78
2022-12-03T22:27:36.650Z,2.86
2022-12-03T22:31:38.571Z,2.85
2022-12-03T22:35:40.053Z,2.77
2022-12-03T22:39:41.621Z,2.86
2022-12-03T22:43:43.242Z,2.94
2022-12-03T22:47:44.775Z,3.00
2022-12-03T22:51:47.222Z,2.81
2022-12-03T22:55:55.555Z,2.78
2022-12-03T22:59:57.422Z,2.73
2022-12-03T23:04:00.313Z,2.86
2022-12-03T23:08:02.027Z,2.82
2022-12-03T23:12:04.162Z,2.83
2022-12-03T23:16:06.700Z,2.80
2022-12-03T23:20:09.038Z,2.81
2022-12-03T23:24:13.191Z,2.82
2022-12-03T23:28:14.797Z,2.85
2022-12-03T23:32:16.447Z,2.73
2022-12-03T23:36:18.626Z,2.68
2022-12-03T23:40:20.314Z,2.71
2022-12-03T23:44:22.092Z,2.64
2022-12-03T23:48:23.949Z,2.72
2022-12-03T23:52:25.608Z,2.71
2022-12-03T23:56:29.722Z,2.70
